Gallatin, Tennessee
Current Conditions -  °F | °C
As of 8:53 PM on Friday 28 Nov 2014 (Local Time) from KBNA Reporting Station
Few Clouds Few Clouds  
Wind Chill:   Ceiling: Unl
Heat Index:   Visibility: 10mi
Dew Point: -6°   Wind: 12mph
Humidity: 43%   Direction: 180°S
Pressure: 30.16"   Gusts: NA
Location:  36.39°N, 86.45°W
Report Text: KBNA 290253Z 18010KT 10SM FEW250 06/M06 A3016 RMK AO2 SLP218 T00561061 55011
Loading
Personal Weather Stations






























Interactive Weather Map New forecast layout! Learn more

10-Day Weather Forecast

Advertisements
Track Severe Weather on mobile